Articles

IAA

Share

Share

Trim Flying Club goes to the Aran Islands

Learn to fly at Trim Flying Club

Rainfall Radar Now

Atlantic Charts Pressure - Today

Atlantic Charts Rainfall - Today

 
 

Atlantic Charts Pressure - Tomorrow

Sunrise Sunset

Click for Dublin, Ireland Forecast

Aviation WX Dublin EIDW

[source: ADDS]
METAR
EIDW 021330Z 12006KT 080V160 9999 FEW017 BKN034 17/09 Q1024 NOSIG =
TAF
TAF EIDW 021100Z 0212/0312 12008KT 9999 FEW020 BKN035 BECMG 0222/0224 VRB03KT TEMPO 0302/0307 3000 BR BKN006 BECMG 0309/0311 10007KT =